sensor_id;sensor_type;location;lat;lon;timestamp;pressure;altitude;pressure_sealevel;temperature;humidity
64343;BME280;50675;53.530;-6.312;2023-05-09T01:43:23;100579.44;;;15.03;62.24
64343;BME280;50675;53.530;-6.312;2023-05-09T03:27:25;100556.69;;;15.32;62.79
64343;BME280;50675;53.530;-6.312;2023-05-09T04:20:08;100526.72;;;15.38;63.83
64343;BME280;50675;53.530;-6.312;2023-05-09T05:32:57;100482.16;;;15.67;64.71
64343;BME280;50675;53.530;-6.312;2023-05-09T05:35:22;100488.06;;;15.74;64.49
64343;BME280;50675;53.530;-6.312;2023-05-09T05:37:49;100487.44;;;15.83;64.62
64343;BME280;50675;53.530;-6.312;2023-05-09T05:40:15;100483.56;;;15.89;64.67
64343;BME280;50675;53.530;-6.312;2023-05-09T05:42:41;100491.09;;;15.97;64.85
64343;BME280;50675;53.530;-6.312;2023-05-09T05:45:08;100485.66;;;15.97;64.44
64343;BME280;50675;53.530;-6.312;2023-05-09T05:47:36;100482.03;;;16.06;64.77
64343;BME280;50675;53.530;-6.312;2023-05-09T05:50:04;100477.09;;;16.08;64.90
64343;BME280;50675;53.530;-6.312;2023-05-09T05:52:31;100480.59;;;16.14;64.81
64343;BME280;50675;53.530;-6.312;2023-05-09T05:54:57;100484.81;;;16.25;64.95
64343;BME280;50675;53.530;-6.312;2023-05-09T05:57:23;100477.22;;;16.22;64.80
64343;BME280;50675;53.530;-6.312;2023-05-09T05:59:49;100483.03;;;16.39;65.08
64343;BME280;50675;53.530;-6.312;2023-05-09T06:02:17;100470.50;;;16.38;65.12
64343;BME280;50675;53.530;-6.312;2023-05-09T06:04:43;100482.91;;;16.49;65.02
64343;BME280;50675;53.530;-6.312;2023-05-09T06:07:09;100469.78;;;16.51;65.06
64343;BME280;50675;53.530;-6.312;2023-05-09T06:09:36;100481.28;;;16.48;65.37
64343;BME280;50675;53.530;-6.312;2023-05-09T06:12:01;100475.72;;;16.58;65.19
64343;BME280;50675;53.530;-6.312;2023-05-09T06:14:27;100469.41;;;16.63;65.26
64343;BME280;50675;53.530;-6.312;2023-05-09T06:16:53;100479.34;;;16.73;65.48
64343;BME280;50675;53.530;-6.312;2023-05-09T06:19:19;100473.53;;;16.79;65.30
64343;BME280;50675;53.530;-6.312;2023-05-09T06:21:44;100479.44;;;16.68;65.49
64343;BME280;50675;53.530;-6.312;2023-05-09T06:24:10;100476.94;;;16.90;65.48
64343;BME280;50675;53.530;-6.312;2023-05-09T06:26:36;100469.06;;;16.88;65.67
64343;BME280;50675;53.530;-6.312;2023-05-09T06:29:03;100481.44;;;17.18;65.32
64343;BME280;50675;53.530;-6.312;2023-05-09T06:31:30;100489.09;;;17.35;65.64
64343;BME280;50675;53.530;-6.312;2023-05-09T06:33:56;100483.44;;;17.31;65.37
64343;BME280;50675;53.530;-6.312;2023-05-09T06:36:22;100478.41;;;17.38;65.54
64343;BME280;50675;53.530;-6.312;2023-05-09T06:38:47;100482.00;;;17.53;65.65
64343;BME280;50675;53.530;-6.312;2023-05-09T06:41:13;100488.78;;;17.55;65.47
64343;BME280;50675;53.530;-6.312;2023-05-09T06:43:39;100478.47;;;17.52;65.75
64343;BME280;50675;53.530;-6.312;2023-05-09T06:46:05;100484.38;;;17.59;65.64
64343;BME280;50675;53.530;-6.312;2023-05-09T06:48:30;100482.88;;;17.67;65.84
64343;BME280;50675;53.530;-6.312;2023-05-09T06:50:56;100490.69;;;17.73;65.55
64343;BME280;50675;53.530;-6.312;2023-05-09T06:53:22;100488.69;;;17.79;65.69
64343;BME280;50675;53.530;-6.312;2023-05-09T06:55:48;100498.13;;;17.86;65.80
64343;BME280;50675;53.530;-6.312;2023-05-09T06:58:13;100496.59;;;17.80;65.69
64343;BME280;50675;53.530;-6.312;2023-05-09T07:00:39;100497.22;;;17.91;65.73
64343;BME280;50675;53.530;-6.312;2023-05-09T07:03:05;100487.97;;;17.87;65.67
64343;BME280;50675;53.530;-6.312;2023-05-09T07:05:34;100502.19;;;18.03;65.82
64343;BME280;50675;53.530;-6.312;2023-05-09T07:08:00;100492.38;;;18.02;65.91
64343;BME280;50675;53.530;-6.312;2023-05-09T07:10:26;100495.81;;;18.07;65.81
64343;BME280;50675;53.530;-6.312;2023-05-09T07:12:52;100505.22;;;18.01;65.62
64343;BME280;50675;53.530;-6.312;2023-05-09T07:15:18;100501.38;;;18.02;65.68
64343;BME280;50675;53.530;-6.312;2023-05-09T07:17:44;100502.72;;;18.05;65.83
64343;BME280;50675;53.530;-6.312;2023-05-09T07:20:10;100495.91;;;18.02;66.05
64343;BME280;50675;53.530;-6.312;2023-05-09T07:22:36;100502.19;;;18.03;66.04
64343;BME280;50675;53.530;-6.312;2023-05-09T07:25:01;100494.19;;;18.06;65.69
64343;BME280;50675;53.530;-6.312;2023-05-09T07:27:27;100489.94;;;18.00;65.81
64343;BME280;50675;53.530;-6.312;2023-05-09T07:29:53;100504.31;;;18.06;65.55
64343;BME280;50675;53.530;-6.312;2023-05-09T07:32:19;100497.97;;;18.10;65.80
64343;BME280;50675;53.530;-6.312;2023-05-09T07:34:45;100503.00;;;18.03;65.57
64343;BME280;50675;53.530;-6.312;2023-05-09T07:37:11;100503.94;;;18.12;65.88
64343;BME280;50675;53.530;-6.312;2023-05-09T07:39:37;100498.44;;;17.99;65.71
64343;BME280;50675;53.530;-6.312;2023-05-09T07:42:02;100504.13;;;18.16;65.83
64343;BME280;50675;53.530;-6.312;2023-05-09T07:44:28;100502.81;;;18.27;65.71
64343;BME280;50675;53.530;-6.312;2023-05-09T07:46:54;100501.28;;;18.21;65.99
64343;BME280;50675;53.530;-6.312;2023-05-09T07:53:01;100498.09;;;18.32;65.91
64343;BME280;50675;53.530;-6.312;2023-05-09T07:55:27;100497.38;;;18.27;65.97
64343;BME280;50675;53.530;-6.312;2023-05-09T07:57:53;100503.34;;;18.43;65.44
64343;BME280;50675;53.530;-6.312;2023-05-09T08:00:19;100494.81;;;18.44;65.43
64343;BME280;50675;53.530;-6.312;2023-05-09T08:02:51;100494.63;;;18.41;65.44
64343;BME280;50675;53.530;-6.312;2023-05-09T08:05:17;100486.94;;;18.29;65.46
64343;BME280;50675;53.530;-6.312;2023-05-09T08:07:43;100494.72;;;18.49;65.70
64343;BME280;50675;53.530;-6.312;2023-05-09T08:10:09;100493.44;;;18.60;65.80
64343;BME280;50675;53.530;-6.312;2023-05-09T08:12:35;100484.41;;;18.60;65.69
64343;BME280;50675;53.530;-6.312;2023-05-09T08:15:01;100500.91;;;18.68;65.38
64343;BME280;50675;53.530;-6.312;2023-05-09T08:17:27;100496.69;;;18.62;65.36
64343;BME280;50675;53.530;-6.312;2023-05-09T08:19:53;100483.22;;;18.66;65.64
64343;BME280;50675;53.530;-6.312;2023-05-09T08:22:19;100489.28;;;18.63;65.66
64343;BME280;50675;53.530;-6.312;2023-05-09T08:24:45;100493.50;;;18.83;65.31
64343;BME280;50675;53.530;-6.312;2023-05-09T08:27:12;100486.19;;;18.92;65.49
64343;BME280;50675;53.530;-6.312;2023-05-09T08:29:39;100494.41;;;19.05;65.43
64343;BME280;50675;53.530;-6.312;2023-05-09T08:32:05;100482.50;;;19.10;65.64
64343;BME280;50675;53.530;-6.312;2023-05-09T08:34:30;100479.97;;;19.13;65.36
64343;BME280;50675;53.530;-6.312;2023-05-09T08:36:59;100479.16;;;19.13;65.25
64343;BME280;50675;53.530;-6.312;2023-05-09T08:39:25;100485.44;;;19.13;65.43
64343;BME280;50675;53.530;-6.312;2023-05-09T08:41:57;100481.69;;;19.09;65.50
64343;BME280;50675;53.530;-6.312;2023-05-09T08:44:24;100470.88;;;19.04;65.22
64343;BME280;50675;53.530;-6.312;2023-05-09T08:47:03;100488.47;;;19.12;65.19
64343;BME280;50675;53.530;-6.312;2023-05-09T08:49:29;100480.69;;;19.05;64.97
64343;BME280;50675;53.530;-6.312;2023-05-09T08:51:56;100479.34;;;19.16;65.28
64343;BME280;50675;53.530;-6.312;2023-05-09T08:54:22;100477.72;;;19.15;64.89
64343;BME280;50675;53.530;-6.312;2023-05-09T08:56:49;100480.72;;;19.28;65.04
64343;BME280;50675;53.530;-6.312;2023-05-09T08:59:16;100480.31;;;19.20;64.80
64343;BME280;50675;53.530;-6.312;2023-05-09T09:01:43;100471.13;;;19.16;64.73
64343;BME280;50675;53.530;-6.312;2023-05-09T09:04:09;100470.25;;;19.30;64.57
64343;BME280;50675;53.530;-6.312;2023-05-09T09:06:36;100471.81;;;19.22;64.48
64343;BME280;50675;53.530;-6.312;2023-05-09T09:09:05;100476.88;;;19.29;64.56
64343;BME280;50675;53.530;-6.312;2023-05-09T09:11:32;100468.91;;;19.41;64.01
64343;BME280;50675;53.530;-6.312;2023-05-09T09:14:06;100470.00;;;19.40;64.22
64343;BME280;50675;53.530;-6.312;2023-05-09T09:16:36;100464.28;;;19.28;64.18
64343;BME280;50675;53.530;-6.312;2023-05-09T09:19:03;100467.19;;;19.45;63.91
64343;BME280;50675;53.530;-6.312;2023-05-09T09:21:34;100451.59;;;19.54;64.24
64343;BME280;50675;53.530;-6.312;2023-05-09T09:24:00;100457.22;;;19.71;64.21
64343;BME280;50675;53.530;-6.312;2023-05-09T09:26:27;100462.81;;;19.66;64.32
64343;BME280;50675;53.530;-6.312;2023-05-09T09:28:56;100456.13;;;19.81;63.92
64343;BME280;50675;53.530;-6.312;2023-05-09T09:31:26;100454.94;;;19.95;64.18
64343;BME280;50675;53.530;-6.312;2023-05-09T09:34:00;100459.63;;;20.03;63.92
64343;BME280;50675;53.530;-6.312;2023-05-09T09:36:28;100452.38;;;20.07;64.03
64343;BME280;50675;53.530;-6.312;2023-05-09T09:43:05;100454.50;;;20.10;63.38
64343;BME280;50675;53.530;-6.312;2023-05-09T09:45:31;100456.25;;;20.06;63.24
64343;BME280;50675;53.530;-6.312;2023-05-09T09:47:57;100458.88;;;20.20;63.38
64343;BME280;50675;53.530;-6.312;2023-05-09T09:50:23;100451.97;;;20.23;63.19
64343;BME280;50675;53.530;-6.312;2023-05-09T09:52:52;100460.19;;;20.23;62.91
64343;BME280;50675;53.530;-6.312;2023-05-09T09:55:19;100449.81;;;20.11;63.15
64343;BME280;50675;53.530;-6.312;2023-05-09T09:57:45;100448.28;;;20.27;63.35
64343;BME280;50675;53.530;-6.312;2023-05-09T10:00:14;100441.56;;;20.33;63.04
64343;BME280;50675;53.530;-6.312;2023-05-09T10:02:48;100448.19;;;20.41;63.11
64343;BME280;50675;53.530;-6.312;2023-05-09T10:05:27;100441.13;;;20.57;63.23
64343;BME280;50675;53.530;-6.312;2023-05-09T10:07:54;100441.31;;;20.69;63.15
64343;BME280;50675;53.530;-6.312;2023-05-09T10:10:24;100417.41;;;20.52;63.03
64343;BME280;50675;53.530;-6.312;2023-05-09T10:12:53;100436.41;;;20.49;63.02
64343;BME280;50675;53.530;-6.312;2023-05-09T10:15:21;100435.50;;;20.62;62.69
64343;BME280;50675;53.530;-6.312;2023-05-09T10:17:53;100439.22;;;20.66;62.89
64343;BME280;50675;53.530;-6.312;2023-05-09T10:20:21;100440.47;;;20.60;62.69
64343;BME280;50675;53.530;-6.312;2023-05-09T10:22:48;100443.25;;;20.69;62.27
64343;BME280;50675;53.530;-6.312;2023-05-09T10:25:24;100433.72;;;20.66;62.35
64343;BME280;50675;53.530;-6.312;2023-05-09T10:27:53;100430.00;;;20.71;62.48
64343;BME280;50675;53.530;-6.312;2023-05-09T10:30:30;100423.38;;;20.63;62.65
64343;BME280;50675;53.530;-6.312;2023-05-09T10:33:07;100423.56;;;20.75;62.53
64343;BME280;50675;53.530;-6.312;2023-05-09T10:35:36;100412.72;;;20.70;62.82
64343;BME280;50675;53.530;-6.312;2023-05-09T10:38:05;100413.53;;;20.96;62.61
64343;BME280;50675;53.530;-6.312;2023-05-09T10:40:33;100418.25;;;21.05;62.74
64343;BME280;50675;53.530;-6.312;2023-05-09T10:43:05;100422.13;;;20.95;62.42
64343;BME280;50675;53.530;-6.312;2023-05-09T10:45:59;100410.63;;;21.02;62.51
64343;BME280;50675;53.530;-6.312;2023-05-09T10:48:32;100404.84;;;21.03;62.35
64343;BME280;50675;53.530;-6.312;2023-05-09T10:51:02;100407.41;;;20.82;62.16
64343;BME280;50675;53.530;-6.312;2023-05-09T10:53:48;100397.06;;;20.79;61.84
64343;BME280;50675;53.530;-6.312;2023-05-09T10:56:31;100402.41;;;20.84;61.24
64343;BME280;50675;53.530;-6.312;2023-05-09T10:59:00;100399.97;;;20.91;61.52
64343;BME280;50675;53.530;-6.312;2023-05-09T11:01:35;100390.75;;;20.96;61.66
64343;BME280;50675;53.530;-6.312;2023-05-09T11:04:08;100384.94;;;21.06;61.72
64343;BME280;50675;53.530;-6.312;2023-05-09T11:09:34;100382.84;;;21.12;61.42
64343;BME280;50675;53.530;-6.312;2023-05-09T11:17:10;100372.53;;;21.00;61.96
64343;BME280;50675;53.530;-6.312;2023-05-09T11:22:23;100376.88;;;21.10;61.66
64343;BME280;50675;53.530;-6.312;2023-05-09T11:24:58;100363.97;;;21.19;61.87
64343;BME280;50675;53.530;-6.312;2023-05-09T11:27:29;100362.84;;;21.28;61.98
64343;BME280;50675;53.530;-6.312;2023-05-09T11:30:04;100362.31;;;21.35;62.05
64343;BME280;50675;53.530;-6.312;2023-05-09T11:32:31;100359.72;;;21.47;62.00
64343;BME280;50675;53.530;-6.312;2023-05-09T11:35:11;100366.97;;;21.43;61.88
64343;BME280;50675;53.530;-6.312;2023-05-09T11:37:45;100366.66;;;21.45;61.41
64343;BME280;50675;53.530;-6.312;2023-05-09T11:40:13;100359.19;;;21.54;61.54
64343;BME280;50675;53.530;-6.312;2023-05-09T11:42:43;100371.38;;;21.82;61.22
64343;BME280;50675;53.530;-6.312;2023-05-09T11:45:11;100363.75;;;21.88;61.66
64343;BME280;50675;53.530;-6.312;2023-05-09T11:47:37;100360.69;;;21.89;61.41
64343;BME280;50675;53.530;-6.312;2023-05-09T11:50:08;100363.41;;;21.98;61.40
64343;BME280;50675;53.530;-6.312;2023-05-09T11:52:35;100361.50;;;21.90;61.48
64343;BME280;50675;53.530;-6.312;2023-05-09T11:55:11;100358.13;;;21.84;61.89
64343;BME280;50675;53.530;-6.312;2023-05-09T11:57:44;100365.06;;;21.81;61.93
64343;BME280;50675;53.530;-6.312;2023-05-09T12:04:20;100358.47;;;22.12;61.63
64343;BME280;50675;53.530;-6.312;2023-05-09T12:17:42;100344.22;;;22.39;61.67
64343;BME280;50675;53.530;-6.312;2023-05-09T12:20:14;100348.88;;;22.47;62.15
64343;BME280;50675;53.530;-6.312;2023-05-09T12:22:43;100341.16;;;22.61;62.16
64343;BME280;50675;53.530;-6.312;2023-05-09T12:25:16;100351.13;;;22.75;61.94
64343;BME280;50675;53.530;-6.312;2023-05-09T12:27:56;100338.75;;;22.81;61.47
64343;BME280;50675;53.530;-6.312;2023-05-09T12:30:24;100341.16;;;23.03;61.59
64343;BME280;50675;53.530;-6.312;2023-05-09T12:32:55;100348.63;;;23.15;61.41
64343;BME280;50675;53.530;-6.312;2023-05-09T12:35:32;100337.53;;;23.23;61.75
64343;BME280;50675;53.530;-6.312;2023-05-09T12:37:59;100343.66;;;23.41;61.68
64343;BME280;50675;53.530;-6.312;2023-05-09T12:40:26;100337.34;;;23.40;61.79
64343;BME280;50675;53.530;-6.312;2023-05-09T12:43:03;100324.63;;;23.48;61.61
64343;BME280;50675;53.530;-6.312;2023-05-09T12:45:31;100329.38;;;23.60;61.42
64343;BME280;50675;53.530;-6.312;2023-05-09T12:48:07;100333.63;;;23.69;61.67
64343;BME280;50675;53.530;-6.312;2023-05-09T12:50:36;100327.66;;;23.79;61.49
64343;BME280;50675;53.530;-6.312;2023-05-09T12:53:08;100328.91;;;23.82;61.88
64343;BME280;50675;53.530;-6.312;2023-05-09T12:55:59;100323.28;;;23.90;61.79
64343;BME280;50675;53.530;-6.312;2023-05-09T12:58:56;100324.56;;;23.93;61.56
64343;BME280;50675;53.530;-6.312;2023-05-09T13:01:34;100313.97;;;23.95;61.40
64343;BME280;50675;53.530;-6.312;2023-05-09T13:04:05;100318.56;;;23.91;61.17
64343;BME280;50675;53.530;-6.312;2023-05-09T13:06:58;100340.19;;;23.65;60.91
64343;BME280;50675;53.530;-6.312;2023-05-09T13:09:33;100328.44;;;23.56;60.77
64343;BME280;50675;53.530;-6.312;2023-05-09T13:12:24;100328.66;;;23.50;60.64
64343;BME280;50675;53.530;-6.312;2023-05-09T13:18:43;100323.75;;;23.23;60.21
64343;BME280;50675;53.530;-6.312;2023-05-09T13:21:45;100327.06;;;23.17;60.29
64343;BME280;50675;53.530;-6.312;2023-05-09T13:30:50;100333.84;;;22.65;59.93
64343;BME280;50675;53.530;-6.312;2023-05-09T13:34:09;100327.50;;;22.44;59.70
64343;BME280;50675;53.530;-6.312;2023-05-09T13:37:23;100322.41;;;22.34;59.96
64343;BME280;50675;53.530;-6.312;2023-05-09T13:40:54;100325.28;;;22.17;60.12
64343;BME280;50675;53.530;-6.312;2023-05-09T13:44:18;100320.09;;;22.15;60.03
64343;BME280;50675;53.530;-6.312;2023-05-09T13:47:31;100332.59;;;22.13;59.92
64343;BME280;50675;53.530;-6.312;2023-05-09T13:50:20;100326.97;;;22.01;60.05
64343;BME280;50675;53.530;-6.312;2023-05-09T13:53:05;100339.66;;;21.93;60.17
64343;BME280;50675;53.530;-6.312;2023-05-09T13:56:06;100334.59;;;21.66;60.11
64343;BME280;50675;53.530;-6.312;2023-05-09T13:58:33;100336.81;;;21.26;60.18
64343;BME280;50675;53.530;-6.312;2023-05-09T14:00:59;100344.56;;;21.15;60.18
64343;BME280;50675;53.530;-6.312;2023-05-09T14:03:25;100335.53;;;20.98;60.23
64343;BME280;50675;53.530;-6.312;2023-05-09T14:05:51;100343.28;;;20.78;60.15
64343;BME280;50675;53.530;-6.312;2023-05-09T14:08:16;100340.41;;;20.66;60.45
64343;BME280;50675;53.530;-6.312;2023-05-09T14:10:42;100345.56;;;20.59;60.33
64343;BME280;50675;53.530;-6.312;2023-05-09T14:13:09;100348.28;;;20.50;60.47
64343;BME280;50675;53.530;-6.312;2023-05-09T14:15:35;100342.81;;;20.50;60.38
64343;BME280;50675;53.530;-6.312;2023-05-09T14:18:01;100342.97;;;20.54;60.45
64343;BME280;50675;53.530;-6.312;2023-05-09T14:20:26;100338.28;;;20.63;60.31
64343;BME280;50675;53.530;-6.312;2023-05-09T14:22:52;100334.41;;;20.81;60.82
64343;BME280;50675;53.530;-6.312;2023-05-09T14:25:19;100340.06;;;20.93;60.69
64343;BME280;50675;53.530;-6.312;2023-05-09T14:27:46;100327.44;;;21.01;60.79
64343;BME280;50675;53.530;-6.312;2023-05-09T14:30:12;100327.47;;;21.18;61.06
64343;BME280;50675;53.530;-6.312;2023-05-09T14:32:38;100336.13;;;21.29;60.71
64343;BME280;50675;53.530;-6.312;2023-05-09T14:35:04;100341.81;;;21.32;60.95
64343;BME280;50675;53.530;-6.312;2023-05-09T14:37:30;100356.66;;;21.31;60.94
64343;BME280;50675;53.530;-6.312;2023-05-09T14:39:55;100356.84;;;20.83;60.93
64343;BME280;50675;53.530;-6.312;2023-05-09T14:42:21;100376.56;;;20.68;60.95
64343;BME280;50675;53.530;-6.312;2023-05-09T14:44:47;100368.06;;;20.22;61.00
64343;BME280;50675;53.530;-6.312;2023-05-09T14:47:13;100368.19;;;20.08;61.27
64343;BME280;50675;53.530;-6.312;2023-05-09T14:49:38;100359.28;;;19.94;61.29
64343;BME280;50675;53.530;-6.312;2023-05-09T14:52:06;100372.19;;;19.93;61.05
64343;BME280;50675;53.530;-6.312;2023-05-09T14:54:31;100366.16;;;19.83;61.00
64343;BME280;50675;53.530;-6.312;2023-05-09T14:56:57;100360.09;;;19.94;61.22
64343;BME280;50675;53.530;-6.312;2023-05-09T14:59:23;100372.56;;;20.09;61.36
64343;BME280;50675;53.530;-6.312;2023-05-09T15:01:49;100363.16;;;20.01;61.10
64343;BME280;50675;53.530;-6.312;2023-05-09T15:04:16;100363.03;;;20.15;61.35
64343;BME280;50675;53.530;-6.312;2023-05-09T15:06:42;100364.06;;;20.28;61.61
64343;BME280;50675;53.530;-6.312;2023-05-09T15:09:08;100364.91;;;20.45;61.58
64343;BME280;50675;53.530;-6.312;2023-05-09T15:11:34;100354.75;;;20.46;61.50
64343;BME280;50675;53.530;-6.312;2023-05-09T15:14:00;100360.25;;;20.55;61.86
64343;BME280;50675;53.530;-6.312;2023-05-09T15:16:25;100357.69;;;20.67;61.56
64343;BME280;50675;53.530;-6.312;2023-05-09T15:18:51;100354.78;;;20.72;61.71
64343;BME280;50675;53.530;-6.312;2023-05-09T15:21:17;100357.03;;;20.70;61.60
64343;BME280;50675;53.530;-6.312;2023-05-09T15:23:43;100351.84;;;20.77;61.87
64343;BME280;50675;53.530;-6.312;2023-05-09T15:26:10;100350.88;;;20.81;61.75
64343;BME280;50675;53.530;-6.312;2023-05-09T15:28:39;100352.31;;;20.96;61.85
64343;BME280;50675;53.530;-6.312;2023-05-09T15:31:05;100338.44;;;21.10;61.60
64343;BME280;50675;53.530;-6.312;2023-05-09T15:33:32;100336.69;;;21.14;61.69
64343;BME280;50675;53.530;-6.312;2023-05-09T15:35:58;100325.97;;;21.29;61.90
64343;BME280;50675;53.530;-6.312;2023-05-09T15:38:25;100339.69;;;21.38;61.42
64343;BME280;50675;53.530;-6.312;2023-05-09T15:40:51;100329.66;;;21.42;61.21
64343;BME280;50675;53.530;-6.312;2023-05-09T15:43:17;100320.56;;;21.50;61.30
64343;BME280;50675;53.530;-6.312;2023-05-09T15:45:43;100315.56;;;21.44;61.42
64343;BME280;50675;53.530;-6.312;2023-05-09T15:48:13;100316.09;;;21.37;61.43
64343;BME280;50675;53.530;-6.312;2023-05-09T15:50:40;100323.22;;;21.38;61.55
64343;BME280;50675;53.530;-6.312;2023-05-09T15:53:07;100324.00;;;21.38;61.58
64343;BME280;50675;53.530;-6.312;2023-05-09T15:55:33;100314.81;;;21.26;61.70
64343;BME280;50675;53.530;-6.312;2023-05-09T15:57:58;100322.84;;;21.39;61.65
64343;BME280;50675;53.530;-6.312;2023-05-09T16:00:24;100321.09;;;21.35;61.71
64343;BME280;50675;53.530;-6.312;2023-05-09T16:02:58;100321.28;;;21.30;61.59
64343;BME280;50675;53.530;-6.312;2023-05-09T16:05:24;100316.81;;;21.00;61.01
64343;BME280;50675;53.530;-6.312;2023-05-09T16:07:49;100323.53;;;21.11;60.71
64343;BME280;50675;53.530;-6.312;2023-05-09T16:10:17;100310.66;;;20.94;61.29
64343;BME280;50675;53.530;-6.312;2023-05-09T16:12:43;100322.78;;;20.93;60.92
64343;BME280;50675;53.530;-6.312;2023-05-09T16:15:09;100321.00;;;20.88;60.82
64343;BME280;50675;53.530;-6.312;2023-05-09T16:17:35;100312.63;;;20.76;60.83
64343;BME280;50675;53.530;-6.312;2023-05-09T16:20:02;100320.53;;;20.78;60.62
64343;BME280;50675;53.530;-6.312;2023-05-09T16:22:28;100304.41;;;20.76;60.85
64343;BME280;50675;53.530;-6.312;2023-05-09T16:24:54;100308.91;;;20.72;60.91
64343;BME280;50675;53.530;-6.312;2023-05-09T16:27:20;100314.72;;;20.79;60.38
64343;BME280;50675;53.530;-6.312;2023-05-09T16:29:46;100315.69;;;20.75;60.80
64343;BME280;50675;53.530;-6.312;2023-05-09T16:32:12;100318.28;;;20.80;60.76
64343;BME280;50675;53.530;-6.312;2023-05-09T16:34:37;100316.34;;;20.72;60.88
64343;BME280;50675;53.530;-6.312;2023-05-09T16:37:03;100312.31;;;20.69;60.75
64343;BME280;50675;53.530;-6.312;2023-05-09T16:39:29;100327.34;;;20.72;60.62
64343;BME280;50675;53.530;-6.312;2023-05-09T16:41:56;100325.03;;;20.82;60.76
64343;BME280;50675;53.530;-6.312;2023-05-09T16:44:25;100329.25;;;20.88;60.77
64343;BME280;50675;53.530;-6.312;2023-05-09T16:46:52;100320.34;;;21.00;60.66
64343;BME280;50675;53.530;-6.312;2023-05-09T16:49:18;100325.34;;;21.07;61.12
64343;BME280;50675;53.530;-6.312;2023-05-09T16:51:43;100324.69;;;21.10;61.06
64343;BME280;50675;53.530;-6.312;2023-05-09T16:54:09;100321.16;;;21.09;60.59
64343;BME280;50675;53.530;-6.312;2023-05-09T16:56:35;100324.06;;;21.04;60.79
64343;BME280;50675;53.530;-6.312;2023-05-09T16:59:02;100316.31;;;20.98;60.57
64343;BME280;50675;53.530;-6.312;2023-05-09T17:01:28;100336.31;;;21.07;60.11
64343;BME280;50675;53.530;-6.312;2023-05-09T17:03:54;100334.09;;;20.83;60.30
64343;BME280;50675;53.530;-6.312;2023-05-09T17:06:20;100332.28;;;20.95;60.00
64343;BME280;50675;53.530;-6.312;2023-05-09T17:08:46;100338.13;;;20.94;59.89
64343;BME280;50675;53.530;-6.312;2023-05-09T17:11:12;100342.50;;;20.95;60.30
64343;BME280;50675;53.530;-6.312;2023-05-09T17:13:39;100337.78;;;20.95;60.18
64343;BME280;50675;53.530;-6.312;2023-05-09T17:16:06;100332.47;;;20.90;60.06
64343;BME280;50675;53.530;-6.312;2023-05-09T17:18:32;100346.38;;;20.85;59.95
64343;BME280;50675;53.530;-6.312;2023-05-09T17:20:58;100347.34;;;20.89;60.09
64343;BME280;50675;53.530;-6.312;2023-05-09T17:23:24;100343.28;;;20.95;59.53
64343;BME280;50675;53.530;-6.312;2023-05-09T17:25:50;100338.59;;;20.87;60.06
64343;BME280;50675;53.530;-6.312;2023-05-09T17:28:16;100339.72;;;20.86;59.82
64343;BME280;50675;53.530;-6.312;2023-05-09T17:30:42;100342.81;;;20.85;60.13
64343;BME280;50675;53.530;-6.312;2023-05-09T17:33:09;100346.69;;;20.75;59.94
64343;BME280;50675;53.530;-6.312;2023-05-09T17:35:36;100347.81;;;20.83;59.87
64343;BME280;50675;53.530;-6.312;2023-05-09T17:38:03;100334.91;;;20.83;60.03
64343;BME280;50675;53.530;-6.312;2023-05-09T17:40:28;100339.44;;;20.79;59.88
64343;BME280;50675;53.530;-6.312;2023-05-09T17:42:54;100339.44;;;20.71;59.98
64343;BME280;50675;53.530;-6.312;2023-05-09T17:45:20;100336.38;;;20.81;59.71
64343;BME280;50675;53.530;-6.312;2023-05-09T17:47:46;100345.56;;;20.93;59.99
64343;BME280;50675;53.530;-6.312;2023-05-09T17:50:11;100329.22;;;20.97;59.71
64343;BME280;50675;53.530;-6.312;2023-05-09T17:52:44;100329.41;;;20.83;59.89
64343;BME280;50675;53.530;-6.312;2023-05-09T17:55:10;100326.97;;;20.73;59.91
64343;BME280;50675;53.530;-6.312;2023-05-09T17:57:36;100328.44;;;20.79;60.04
64343;BME280;50675;53.530;-6.312;2023-05-09T18:00:02;100338.78;;;20.48;59.69
64343;BME280;50675;53.530;-6.312;2023-05-09T18:02:32;100334.25;;;20.52;59.86
64343;BME280;50675;53.530;-6.312;2023-05-09T18:04:58;100329.25;;;20.45;59.73
64343;BME280;50675;53.530;-6.312;2023-05-09T18:07:24;100332.16;;;20.49;59.61
64343;BME280;50675;53.530;-6.312;2023-05-09T18:09:50;100340.56;;;20.52;59.79
64343;BME280;50675;53.530;-6.312;2023-05-09T18:12:16;100324.88;;;20.44;59.39
64343;BME280;50675;53.530;-6.312;2023-05-09T18:14:42;100339.25;;;20.33;59.69
64343;BME280;50675;53.530;-6.312;2023-05-09T18:17:07;100329.16;;;20.20;59.42
64343;BME280;50675;53.530;-6.312;2023-05-09T18:19:33;100334.50;;;20.25;59.50
64343;BME280;50675;53.530;-6.312;2023-05-09T18:22:00;100333.19;;;20.05;59.61
64343;BME280;50675;53.530;-6.312;2023-05-09T18:24:26;100352.84;;;19.98;59.16
64343;BME280;50675;53.530;-6.312;2023-05-09T18:26:51;100354.47;;;19.99;59.32
64343;BME280;50675;53.530;-6.312;2023-05-09T18:29:17;100361.56;;;20.00;59.15
64343;BME280;50675;53.530;-6.312;2023-05-09T18:31:43;100355.28;;;20.08;58.96
64343;BME280;50675;53.530;-6.312;2023-05-09T18:34:09;100369.31;;;20.07;59.07
64343;BME280;50675;53.530;-6.312;2023-05-09T18:36:34;100368.63;;;19.93;59.26
64343;BME280;50675;53.530;-6.312;2023-05-09T18:39:00;100362.31;;;19.92;59.19
64343;BME280;50675;53.530;-6.312;2023-05-09T18:41:26;100363.53;;;19.69;58.96
64343;BME280;50675;53.530;-6.312;2023-05-09T18:43:55;100361.97;;;19.77;58.81
64343;BME280;50675;53.530;-6.312;2023-05-09T18:46:21;100369.28;;;19.59;58.95
64343;BME280;50675;53.530;-6.312;2023-05-09T18:48:49;100375.53;;;19.51;58.68
64343;BME280;50675;53.530;-6.312;2023-05-09T18:51:16;100375.88;;;19.36;58.67
64343;BME280;50675;53.530;-6.312;2023-05-09T18:53:51;100379.25;;;19.10;58.77
64343;BME280;50675;53.530;-6.312;2023-05-09T19:19:40;100382.75;;;18.03;58.36
64343;BME280;50675;53.530;-6.312;2023-05-09T19:22:38;100378.59;;;17.92;58.33